sensor_id;sensor_type;location;lat;lon;timestamp;P1;durP1;ratioP1;P2;durP2;ratioP2
25381;SDS011;16307;42.896;20.874;2022-10-22T00:00:12;26.67;;;13.27;;
25381;SDS011;16307;42.896;20.874;2022-10-22T00:02:59;23.98;;;12.80;;
25381;SDS011;16307;42.896;20.874;2022-10-22T00:05:46;28.45;;;12.70;;
25381;SDS011;16307;42.896;20.874;2022-10-22T00:08:32;25.67;;;12.68;;
25381;SDS011;16307;42.896;20.874;2022-10-22T00:11:19;28.73;;;13.13;;
25381;SDS011;16307;42.896;20.874;2022-10-22T00:14:05;32.25;;;14.20;;
25381;SDS011;16307;42.896;20.874;2022-10-22T00:16:51;32.67;;;14.93;;
25381;SDS011;16307;42.896;20.874;2022-10-22T00:19:38;26.83;;;13.10;;
25381;SDS011;16307;42.896;20.874;2022-10-22T00:22:24;31.30;;;13.35;;
25381;SDS011;16307;42.896;20.874;2022-10-22T00:25:09;30.90;;;14.00;;
25381;SDS011;16307;42.896;20.874;2022-10-22T00:27:55;29.23;;;13.75;;
25381;SDS011;16307;42.896;20.874;2022-10-22T00:30:42;27.73;;;13.48;;
25381;SDS011;16307;42.896;20.874;2022-10-22T00:33:28;26.58;;;12.55;;
25381;SDS011;16307;42.896;20.874;2022-10-22T00:36:15;25.38;;;13.68;;
25381;SDS011;16307;42.896;20.874;2022-10-22T00:39:01;26.52;;;13.80;;
25381;SDS011;16307;42.896;20.874;2022-10-22T00:41:48;30.42;;;13.95;;
25381;SDS011;16307;42.896;20.874;2022-10-22T00:48:00;25.30;;;12.85;;
25381;SDS011;16307;42.896;20.874;2022-10-22T00:50:52;23.98;;;13.15;;
25381;SDS011;16307;42.896;20.874;2022-10-22T00:53:43;22.73;;;12.52;;
25381;SDS011;16307;42.896;20.874;2022-10-22T00:56:33;23.85;;;12.40;;
25381;SDS011;16307;42.896;20.874;2022-10-22T00:59:19;24.77;;;12.90;;
25381;SDS011;16307;42.896;20.874;2022-10-22T01:02:05;25.27;;;13.07;;
25381;SDS011;16307;42.896;20.874;2022-10-22T01:04:51;30.33;;;12.82;;
25381;SDS011;16307;42.896;20.874;2022-10-22T01:07:40;25.70;;;13.30;;
25381;SDS011;16307;42.896;20.874;2022-10-22T01:10:41;21.73;;;13.25;;
25381;SDS011;16307;42.896;20.874;2022-10-22T01:14:24;27.40;;;12.98;;
25381;SDS011;16307;42.896;20.874;2022-10-22T01:17:31;25.63;;;12.68;;
25381;SDS011;16307;42.896;20.874;2022-10-22T01:23:22;27.15;;;12.85;;
25381;SDS011;16307;42.896;20.874;2022-10-22T01:26:24;26.25;;;13.27;;
25381;SDS011;16307;42.896;20.874;2022-10-22T01:32:07;23.98;;;12.18;;
25381;SDS011;16307;42.896;20.874;2022-10-22T01:34:59;24.27;;;12.70;;
25381;SDS011;16307;42.896;20.874;2022-10-22T01:37:57;24.67;;;12.93;;
25381;SDS011;16307;42.896;20.874;2022-10-22T01:40:46;28.13;;;13.18;;
25381;SDS011;16307;42.896;20.874;2022-10-22T01:43:32;24.25;;;12.85;;
25381;SDS011;16307;42.896;20.874;2022-10-22T01:46:18;36.50;;;13.77;;
25381;SDS011;16307;42.896;20.874;2022-10-22T01:54:58;26.73;;;12.98;;
25381;SDS011;16307;42.896;20.874;2022-10-22T01:57:56;41.25;;;18.08;;
25381;SDS011;16307;42.896;20.874;2022-10-22T02:01:34;103.07;;;38.90;;
25381;SDS011;16307;42.896;20.874;2022-10-22T02:04:26;43.70;;;19.85;;
25381;SDS011;16307;42.896;20.874;2022-10-22T02:07:14;32.20;;;15.95;;
25381;SDS011;16307;42.896;20.874;2022-10-22T02:10:04;31.90;;;14.25;;
25381;SDS011;16307;42.896;20.874;2022-10-22T02:12:53;24.73;;;12.93;;
25381;SDS011;16307;42.896;20.874;2022-10-22T02:15:40;27.90;;;12.13;;
25381;SDS011;16307;42.896;20.874;2022-10-22T02:18:29;25.30;;;12.52;;
25381;SDS011;16307;42.896;20.874;2022-10-22T02:21:22;24.23;;;12.40;;
25381;SDS011;16307;42.896;20.874;2022-10-22T02:24:08;23.05;;;12.75;;
25381;SDS011;16307;42.896;20.874;2022-10-22T02:26:58;25.23;;;12.75;;
25381;SDS011;16307;42.896;20.874;2022-10-22T02:29:55;26.52;;;12.85;;
25381;SDS011;16307;42.896;20.874;2022-10-22T02:35:38;29.03;;;14.57;;
25381;SDS011;16307;42.896;20.874;2022-10-22T02:38:25;29.55;;;14.48;;
25381;SDS011;16307;42.896;20.874;2022-10-22T02:41:12;24.38;;;12.02;;
25381;SDS011;16307;42.896;20.874;2022-10-22T02:43:58;24.48;;;12.68;;
25381;SDS011;16307;42.896;20.874;2022-10-22T02:46:47;22.42;;;12.23;;
25381;SDS011;16307;42.896;20.874;2022-10-22T02:49:33;19.65;;;11.73;;
25381;SDS011;16307;42.896;20.874;2022-10-22T02:52:19;24.65;;;11.40;;
25381;SDS011;16307;42.896;20.874;2022-10-22T02:55:05;33.25;;;12.32;;
25381;SDS011;16307;42.896;20.874;2022-10-22T02:57:51;30.25;;;13.25;;
25381;SDS011;16307;42.896;20.874;2022-10-22T03:00:37;21.95;;;12.38;;
25381;SDS011;16307;42.896;20.874;2022-10-22T03:03:23;18.23;;;12.13;;
25381;SDS011;16307;42.896;20.874;2022-10-22T03:06:09;20.83;;;10.63;;
25381;SDS011;16307;42.896;20.874;2022-10-22T03:08:55;20.33;;;10.95;;
25381;SDS011;16307;42.896;20.874;2022-10-22T03:11:41;22.88;;;11.27;;
25381;SDS011;16307;42.896;20.874;2022-10-22T03:14:27;24.02;;;12.25;;
25381;SDS011;16307;42.896;20.874;2022-10-22T03:17:13;21.67;;;11.82;;
25381;SDS011;16307;42.896;20.874;2022-10-22T03:19:59;22.48;;;11.65;;
25381;SDS011;16307;42.896;20.874;2022-10-22T03:22:45;26.77;;;12.13;;
25381;SDS011;16307;42.896;20.874;2022-10-22T03:25:31;24.10;;;11.77;;
25381;SDS011;16307;42.896;20.874;2022-10-22T03:28:19;26.50;;;11.32;;
25381;SDS011;16307;42.896;20.874;2022-10-22T03:31:05;23.67;;;12.23;;
25381;SDS011;16307;42.896;20.874;2022-10-22T03:33:51;25.98;;;11.32;;
25381;SDS011;16307;42.896;20.874;2022-10-22T03:36:38;22.35;;;11.13;;
25381;SDS011;16307;42.896;20.874;2022-10-22T03:39:24;23.08;;;11.63;;
25381;SDS011;16307;42.896;20.874;2022-10-22T03:42:12;25.45;;;12.00;;
25381;SDS011;16307;42.896;20.874;2022-10-22T03:44:58;25.52;;;12.10;;
25381;SDS011;16307;42.896;20.874;2022-10-22T03:47:44;29.73;;;12.82;;
25381;SDS011;16307;42.896;20.874;2022-10-22T03:50:30;23.92;;;12.68;;
25381;SDS011;16307;42.896;20.874;2022-10-22T03:53:16;26.20;;;13.52;;
25381;SDS011;16307;42.896;20.874;2022-10-22T03:56:02;26.48;;;12.18;;
25381;SDS011;16307;42.896;20.874;2022-10-22T03:58:54;23.33;;;11.82;;
25381;SDS011;16307;42.896;20.874;2022-10-22T04:01:42;24.40;;;12.88;;
25381;SDS011;16307;42.896;20.874;2022-10-22T04:04:27;20.23;;;11.38;;
25381;SDS011;16307;42.896;20.874;2022-10-22T04:07:13;24.02;;;11.52;;
25381;SDS011;16307;42.896;20.874;2022-10-22T04:09:59;25.88;;;12.90;;
25381;SDS011;16307;42.896;20.874;2022-10-22T04:12:46;22.73;;;12.82;;
25381;SDS011;16307;42.896;20.874;2022-10-22T04:15:32;20.92;;;12.25;;
25381;SDS011;16307;42.896;20.874;2022-10-22T04:18:19;21.65;;;11.93;;
25381;SDS011;16307;42.896;20.874;2022-10-22T04:21:06;22.35;;;11.65;;
25381;SDS011;16307;42.896;20.874;2022-10-22T04:23:53;21.60;;;11.85;;
25381;SDS011;16307;42.896;20.874;2022-10-22T04:26:39;24.13;;;11.85;;
25381;SDS011;16307;42.896;20.874;2022-10-22T04:29:25;29.83;;;12.80;;
25381;SDS011;16307;42.896;20.874;2022-10-22T04:32:11;23.05;;;12.10;;
25381;SDS011;16307;42.896;20.874;2022-10-22T04:34:57;22.25;;;12.43;;
25381;SDS011;16307;42.896;20.874;2022-10-22T04:37:43;29.38;;;12.73;;
25381;SDS011;16307;42.896;20.874;2022-10-22T04:40:29;29.10;;;13.13;;
25381;SDS011;16307;42.896;20.874;2022-10-22T04:43:15;26.10;;;13.88;;
25381;SDS011;16307;42.896;20.874;2022-10-22T04:46:01;27.35;;;13.90;;
25381;SDS011;16307;42.896;20.874;2022-10-22T04:48:47;27.30;;;14.90;;
25381;SDS011;16307;42.896;20.874;2022-10-22T04:51:33;32.50;;;14.60;;
25381;SDS011;16307;42.896;20.874;2022-10-22T04:54:19;33.72;;;15.27;;
25381;SDS011;16307;42.896;20.874;2022-10-22T04:57:05;30.27;;;14.60;;
25381;SDS011;16307;42.896;20.874;2022-10-22T04:59:51;31.27;;;13.82;;
25381;SDS011;16307;42.896;20.874;2022-10-22T05:02:37;24.52;;;13.38;;
25381;SDS011;16307;42.896;20.874;2022-10-22T05:05:23;25.30;;;12.75;;
25381;SDS011;16307;42.896;20.874;2022-10-22T05:08:09;21.90;;;11.75;;
25381;SDS011;16307;42.896;20.874;2022-10-22T05:10:55;22.30;;;12.20;;
25381;SDS011;16307;42.896;20.874;2022-10-22T05:13:41;24.27;;;12.25;;
25381;SDS011;16307;42.896;20.874;2022-10-22T05:16:28;26.05;;;12.88;;
25381;SDS011;16307;42.896;20.874;2022-10-22T05:19:36;24.33;;;11.90;;
25381;SDS011;16307;42.896;20.874;2022-10-22T05:22:20;25.92;;;13.70;;
25381;SDS011;16307;42.896;20.874;2022-10-22T05:25:06;25.88;;;12.82;;
25381;SDS011;16307;42.896;20.874;2022-10-22T05:27:53;28.13;;;14.00;;
25381;SDS011;16307;42.896;20.874;2022-10-22T05:30:51;25.67;;;13.25;;
25381;SDS011;16307;42.896;20.874;2022-10-22T05:33:39;26.75;;;13.93;;
25381;SDS011;16307;42.896;20.874;2022-10-22T05:36:25;24.60;;;13.32;;
25381;SDS011;16307;42.896;20.874;2022-10-22T05:39:12;27.15;;;14.25;;
25381;SDS011;16307;42.896;20.874;2022-10-22T05:41:57;29.52;;;13.80;;
25381;SDS011;16307;42.896;20.874;2022-10-22T05:44:43;26.85;;;13.38;;
25381;SDS011;16307;42.896;20.874;2022-10-22T05:47:29;31.55;;;14.75;;
25381;SDS011;16307;42.896;20.874;2022-10-22T05:50:15;33.85;;;14.95;;
25381;SDS011;16307;42.896;20.874;2022-10-22T05:53:01;32.25;;;14.43;;
25381;SDS011;16307;42.896;20.874;2022-10-22T05:55:48;33.08;;;14.52;;
25381;SDS011;16307;42.896;20.874;2022-10-22T05:58:35;36.20;;;15.88;;
25381;SDS011;16307;42.896;20.874;2022-10-22T06:01:25;39.50;;;16.02;;
25381;SDS011;16307;42.896;20.874;2022-10-22T06:04:15;31.23;;;15.75;;
25381;SDS011;16307;42.896;20.874;2022-10-22T06:07:07;32.97;;;15.52;;
25381;SDS011;16307;42.896;20.874;2022-10-22T06:09:55;30.60;;;15.38;;
25381;SDS011;16307;42.896;20.874;2022-10-22T06:12:41;29.73;;;14.75;;
25381;SDS011;16307;42.896;20.874;2022-10-22T06:15:27;34.97;;;14.85;;
25381;SDS011;16307;42.896;20.874;2022-10-22T06:18:13;31.35;;;15.48;;
25381;SDS011;16307;42.896;20.874;2022-10-22T06:21:06;34.65;;;15.98;;
25381;SDS011;16307;42.896;20.874;2022-10-22T06:23:55;42.33;;;21.50;;
25381;SDS011;16307;42.896;20.874;2022-10-22T06:26:41;38.58;;;18.38;;
25381;SDS011;16307;42.896;20.874;2022-10-22T06:29:27;32.80;;;18.58;;
25381;SDS011;16307;42.896;20.874;2022-10-22T06:32:13;30.08;;;16.13;;
25381;SDS011;16307;42.896;20.874;2022-10-22T06:34:59;30.75;;;16.55;;
25381;SDS011;16307;42.896;20.874;2022-10-22T06:37:45;35.92;;;15.90;;
25381;SDS011;16307;42.896;20.874;2022-10-22T06:40:32;29.95;;;16.25;;
25381;SDS011;16307;42.896;20.874;2022-10-22T06:43:18;32.00;;;16.90;;
25381;SDS011;16307;42.896;20.874;2022-10-22T06:46:05;32.80;;;17.20;;
25381;SDS011;16307;42.896;20.874;2022-10-22T06:48:57;41.58;;;17.45;;
25381;SDS011;16307;42.896;20.874;2022-10-22T06:51:48;37.70;;;17.90;;
25381;SDS011;16307;42.896;20.874;2022-10-22T06:54:35;36.80;;;17.40;;
25381;SDS011;16307;42.896;20.874;2022-10-22T06:57:21;41.28;;;19.13;;
25381;SDS011;16307;42.896;20.874;2022-10-22T07:00:07;40.05;;;20.45;;
25381;SDS011;16307;42.896;20.874;2022-10-22T07:02:53;42.88;;;16.80;;
25381;SDS011;16307;42.896;20.874;2022-10-22T07:05:44;33.95;;;16.75;;
25381;SDS011;16307;42.896;20.874;2022-10-22T07:08:30;40.03;;;18.73;;
25381;SDS011;16307;42.896;20.874;2022-10-22T07:11:21;30.00;;;18.05;;
25381;SDS011;16307;42.896;20.874;2022-10-22T07:14:12;35.20;;;18.15;;
25381;SDS011;16307;42.896;20.874;2022-10-22T07:16:58;32.50;;;20.08;;
25381;SDS011;16307;42.896;20.874;2022-10-22T07:19:44;34.13;;;19.63;;
25381;SDS011;16307;42.896;20.874;2022-10-22T07:22:35;40.92;;;20.35;;
25381;SDS011;16307;42.896;20.874;2022-10-22T07:25:22;44.28;;;24.85;;
25381;SDS011;16307;42.896;20.874;2022-10-22T07:28:08;58.45;;;24.33;;
25381;SDS011;16307;42.896;20.874;2022-10-22T07:30:54;52.38;;;28.08;;
25381;SDS011;16307;42.896;20.874;2022-10-22T07:33:43;60.45;;;27.33;;
25381;SDS011;16307;42.896;20.874;2022-10-22T07:36:30;43.78;;;25.17;;
25381;SDS011;16307;42.896;20.874;2022-10-22T07:39:16;57.70;;;26.30;;
25381;SDS011;16307;42.896;20.874;2022-10-22T07:42:02;64.88;;;26.55;;
25381;SDS011;16307;42.896;20.874;2022-10-22T07:44:48;55.90;;;26.67;;
25381;SDS011;16307;42.896;20.874;2022-10-22T07:47:34;63.63;;;27.92;;
25381;SDS011;16307;42.896;20.874;2022-10-22T07:50:21;62.72;;;28.17;;
25381;SDS011;16307;42.896;20.874;2022-10-22T07:53:07;57.58;;;27.73;;
25381;SDS011;16307;42.896;20.874;2022-10-22T07:55:53;56.00;;;26.52;;
25381;SDS011;16307;42.896;20.874;2022-10-22T07:58:39;55.67;;;26.77;;
25381;SDS011;16307;42.896;20.874;2022-10-22T08:01:27;65.18;;;32.10;;
25381;SDS011;16307;42.896;20.874;2022-10-22T08:04:16;55.58;;;27.20;;
25381;SDS011;16307;42.896;20.874;2022-10-22T08:07:02;46.35;;;26.10;;
25381;SDS011;16307;42.896;20.874;2022-10-22T08:13:06;47.33;;;24.45;;
25381;SDS011;16307;42.896;20.874;2022-10-22T08:15:52;47.40;;;25.38;;
25381;SDS011;16307;42.896;20.874;2022-10-22T08:18:42;47.00;;;24.77;;
25381;SDS011;16307;42.896;20.874;2022-10-22T08:21:28;48.95;;;25.42;;
25381;SDS011;16307;42.896;20.874;2022-10-22T08:24:14;51.55;;;30.40;;
25381;SDS011;16307;42.896;20.874;2022-10-22T08:27:00;49.13;;;25.52;;
25381;SDS011;16307;42.896;20.874;2022-10-22T08:29:46;57.58;;;29.05;;
25381;SDS011;16307;42.896;20.874;2022-10-22T08:32:32;47.25;;;23.95;;
25381;SDS011;16307;42.896;20.874;2022-10-22T08:35:18;39.03;;;21.77;;
25381;SDS011;16307;42.896;20.874;2022-10-22T08:38:04;37.35;;;22.02;;
25381;SDS011;16307;42.896;20.874;2022-10-22T08:40:52;39.40;;;22.17;;
25381;SDS011;16307;42.896;20.874;2022-10-22T08:43:46;37.13;;;20.63;;
25381;SDS011;16307;42.896;20.874;2022-10-22T08:49:54;35.47;;;20.17;;
25381;SDS011;16307;42.896;20.874;2022-10-22T08:52:42;52.13;;;22.98;;
25381;SDS011;16307;42.896;20.874;2022-10-22T08:55:29;32.13;;;20.42;;
25381;SDS011;16307;42.896;20.874;2022-10-22T08:58:34;36.05;;;22.20;;
25381;SDS011;16307;42.896;20.874;2022-10-22T09:01:42;38.08;;;21.60;;
25381;SDS011;16307;42.896;20.874;2022-10-22T09:04:42;36.13;;;21.15;;
25381;SDS011;16307;42.896;20.874;2022-10-22T09:07:32;44.85;;;22.90;;
25381;SDS011;16307;42.896;20.874;2022-10-22T09:10:20;44.75;;;22.70;;
25381;SDS011;16307;42.896;20.874;2022-10-22T09:13:08;50.33;;;23.25;;
25381;SDS011;16307;42.896;20.874;2022-10-22T09:15:58;37.28;;;21.73;;
25381;SDS011;16307;42.896;20.874;2022-10-22T09:18:50;44.92;;;22.35;;
25381;SDS011;16307;42.896;20.874;2022-10-22T09:25:18;48.88;;;21.33;;
25381;SDS011;16307;42.896;20.874;2022-10-22T09:28:07;37.30;;;18.40;;
25381;SDS011;16307;42.896;20.874;2022-10-22T09:30:53;28.20;;;17.17;;
25381;SDS011;16307;42.896;20.874;2022-10-22T09:33:40;34.35;;;15.93;;
25381;SDS011;16307;42.896;20.874;2022-10-22T09:36:28;27.40;;;15.57;;
25381;SDS011;16307;42.896;20.874;2022-10-22T09:39:27;41.67;;;18.20;;
25381;SDS011;16307;42.896;20.874;2022-10-22T09:42:18;31.92;;;15.40;;
25381;SDS011;16307;42.896;20.874;2022-10-22T09:45:05;28.83;;;12.23;;
25381;SDS011;16307;42.896;20.874;2022-10-22T09:48:02;25.23;;;11.65;;
25381;SDS011;16307;42.896;20.874;2022-10-22T09:54:17;16.13;;;8.93;;
25381;SDS011;16307;42.896;20.874;2022-10-22T09:57:09;16.17;;;9.13;;
25381;SDS011;16307;42.896;20.874;2022-10-22T10:00:00;17.33;;;9.18;;
25381;SDS011;16307;42.896;20.874;2022-10-22T10:02:56;18.70;;;10.07;;
25381;SDS011;16307;42.896;20.874;2022-10-22T10:05:46;23.42;;;11.75;;
25381;SDS011;16307;42.896;20.874;2022-10-22T10:08:33;30.10;;;10.85;;
25381;SDS011;16307;42.896;20.874;2022-10-22T10:14:24;17.60;;;9.05;;
25381;SDS011;16307;42.896;20.874;2022-10-22T10:20:53;19.65;;;8.18;;
25381;SDS011;16307;42.896;20.874;2022-10-22T10:35:39;18.65;;;8.57;;
25381;SDS011;16307;42.896;20.874;2022-10-22T10:41:37;13.63;;;7.97;;
25381;SDS011;16307;42.896;20.874;2022-10-22T10:50:30;20.85;;;8.30;;
25381;SDS011;16307;42.896;20.874;2022-10-22T10:53:43;20.25;;;10.00;;
25381;SDS011;16307;42.896;20.874;2022-10-22T10:59:39;16.08;;;9.10;;
25381;SDS011;16307;42.896;20.874;2022-10-22T11:02:39;17.42;;;8.43;;
25381;SDS011;16307;42.896;20.874;2022-10-22T11:08:35;18.03;;;7.90;;
25381;SDS011;16307;42.896;20.874;2022-10-22T11:11:38;12.85;;;7.78;;
25381;SDS011;16307;42.896;20.874;2022-10-22T11:14:40;14.27;;;7.65;;
25381;SDS011;16307;42.896;20.874;2022-10-22T11:17:37;17.25;;;6.68;;
25381;SDS011;16307;42.896;20.874;2022-10-22T11:24:19;15.82;;;7.57;;
25381;SDS011;16307;42.896;20.874;2022-10-22T11:27:06;21.02;;;7.93;;
25381;SDS011;16307;42.896;20.874;2022-10-22T11:30:19;20.45;;;7.88;;
25381;SDS011;16307;42.896;20.874;2022-10-22T11:33:09;15.70;;;7.90;;
25381;SDS011;16307;42.896;20.874;2022-10-22T11:35:56;27.75;;;8.23;;
25381;SDS011;16307;42.896;20.874;2022-10-22T11:38:42;20.33;;;7.60;;
25381;SDS011;16307;42.896;20.874;2022-10-22T11:41:29;20.63;;;7.50;;
25381;SDS011;16307;42.896;20.874;2022-10-22T11:44:21;17.73;;;8.65;;
25381;SDS011;16307;42.896;20.874;2022-10-22T11:47:13;20.58;;;7.97;;
25381;SDS011;16307;42.896;20.874;2022-10-22T11:58:52;21.65;;;9.07;;
25381;SDS011;16307;42.896;20.874;2022-10-22T12:01:40;17.60;;;9.40;;
25381;SDS011;16307;42.896;20.874;2022-10-22T12:04:39;15.35;;;8.27;;
25381;SDS011;16307;42.896;20.874;2022-10-22T12:07:33;19.38;;;10.50;;
25381;SDS011;16307;42.896;20.874;2022-10-22T12:10:26;24.25;;;9.25;;
25381;SDS011;16307;42.896;20.874;2022-10-22T12:13:25;14.18;;;6.80;;
25381;SDS011;16307;42.896;20.874;2022-10-22T12:16:13;15.38;;;6.90;;
25381;SDS011;16307;42.896;20.874;2022-10-22T12:19:12;18.98;;;8.23;;
25381;SDS011;16307;42.896;20.874;2022-10-22T12:24:53;24.90;;;8.68;;
25381;SDS011;16307;42.896;20.874;2022-10-22T12:27:41;20.48;;;8.00;;
25381;SDS011;16307;42.896;20.874;2022-10-22T12:30:29;13.82;;;7.13;;
25381;SDS011;16307;42.896;20.874;2022-10-22T12:33:20;12.50;;;6.78;;
25381;SDS011;16307;42.896;20.874;2022-10-22T12:36:15;10.82;;;6.38;;
25381;SDS011;16307;42.896;20.874;2022-10-22T12:39:03;16.45;;;6.07;;
25381;SDS011;16307;42.896;20.874;2022-10-22T12:41:56;12.02;;;5.70;;
25381;SDS011;16307;42.896;20.874;2022-10-22T12:44:42;17.35;;;4.95;;
25381;SDS011;16307;42.896;20.874;2022-10-22T12:47:29;13.30;;;5.75;;
25381;SDS011;16307;42.896;20.874;2022-10-22T12:50:19;21.33;;;11.60;;
25381;SDS011;16307;42.896;20.874;2022-10-22T12:53:14;18.40;;;8.25;;
25381;SDS011;16307;42.896;20.874;2022-10-22T12:56:06;14.60;;;7.35;;
25381;SDS011;16307;42.896;20.874;2022-10-22T12:58:58;28.90;;;9.32;;
25381;SDS011;16307;42.896;20.874;2022-10-22T13:01:47;27.40;;;6.70;;
25381;SDS011;16307;42.896;20.874;2022-10-22T13:04:34;12.68;;;6.05;;
25381;SDS011;16307;42.896;20.874;2022-10-22T13:07:25;10.38;;;5.20;;
25381;SDS011;16307;42.896;20.874;2022-10-22T13:10:33;23.42;;;7.07;;
25381;SDS011;16307;42.896;20.874;2022-10-22T13:13:30;13.82;;;5.75;;
25381;SDS011;16307;42.896;20.874;2022-10-22T13:16:27;18.30;;;5.93;;
25381;SDS011;16307;42.896;20.874;2022-10-22T13:31:01;14.85;;;6.07;;
25381;SDS011;16307;42.896;20.874;2022-10-22T13:33:55;15.00;;;5.63;;
25381;SDS011;16307;42.896;20.874;2022-10-22T13:36:45;12.85;;;6.00;;
25381;SDS011;16307;42.896;20.874;2022-10-22T13:39:31;12.80;;;6.97;;
25381;SDS011;16307;42.896;20.874;2022-10-22T13:42:19;13.90;;;6.80;;
25381;SDS011;16307;42.896;20.874;2022-10-22T13:45:05;22.55;;;8.23;;
25381;SDS011;16307;42.896;20.874;2022-10-22T13:47:52;13.73;;;7.72;;
25381;SDS011;16307;42.896;20.874;2022-10-22T13:50:39;17.00;;;8.13;;
25381;SDS011;16307;42.896;20.874;2022-10-22T13:53:25;22.88;;;8.60;;
25381;SDS011;16307;42.896;20.874;2022-10-22T13:56:13;19.48;;;7.53;;
25381;SDS011;16307;42.896;20.874;2022-10-22T13:59:00;22.92;;;7.65;;
25381;SDS011;16307;42.896;20.874;2022-10-22T14:01:46;20.98;;;7.85;;
25381;SDS011;16307;42.896;20.874;2022-10-22T14:04:32;19.73;;;9.50;;
25381;SDS011;16307;42.896;20.874;2022-10-22T14:07:20;21.48;;;9.45;;
25381;SDS011;16307;42.896;20.874;2022-10-22T14:10:13;22.38;;;9.40;;
25381;SDS011;16307;42.896;20.874;2022-10-22T14:13:05;21.88;;;10.23;;
25381;SDS011;16307;42.896;20.874;2022-10-22T14:15:52;16.75;;;8.82;;
25381;SDS011;16307;42.896;20.874;2022-10-22T14:18:38;17.38;;;9.10;;
25381;SDS011;16307;42.896;20.874;2022-10-22T14:21:24;29.90;;;12.25;;
25381;SDS011;16307;42.896;20.874;2022-10-22T14:24:10;28.90;;;14.23;;
25381;SDS011;16307;42.896;20.874;2022-10-22T14:26:58;30.23;;;13.18;;
25381;SDS011;16307;42.896;20.874;2022-10-22T14:29:44;34.60;;;14.68;;
25381;SDS011;16307;42.896;20.874;2022-10-22T14:32:30;28.80;;;13.10;;
25381;SDS011;16307;42.896;20.874;2022-10-22T14:35:20;33.47;;;13.18;;
25381;SDS011;16307;42.896;20.874;2022-10-22T14:38:08;29.98;;;12.10;;
25381;SDS011;16307;42.896;20.874;2022-10-22T14:40:54;34.05;;;13.25;;
25381;SDS011;16307;42.896;20.874;2022-10-22T14:43:41;35.92;;;14.68;;
25381;SDS011;16307;42.896;20.874;2022-10-22T14:46:27;36.63;;;15.00;;
25381;SDS011;16307;42.896;20.874;2022-10-22T14:49:13;40.88;;;15.10;;
25381;SDS011;16307;42.896;20.874;2022-10-22T14:51:59;37.45;;;14.88;;
25381;SDS011;16307;42.896;20.874;2022-10-22T14:54:45;30.90;;;13.15;;
25381;SDS011;16307;42.896;20.874;2022-10-22T14:57:33;31.90;;;13.13;;
25381;SDS011;16307;42.896;20.874;2022-10-22T15:00:19;51.28;;;18.60;;
25381;SDS011;16307;42.896;20.874;2022-10-22T15:03:05;66.28;;;28.40;;
25381;SDS011;16307;42.896;20.874;2022-10-22T15:05:51;45.17;;;18.60;;
25381;SDS011;16307;42.896;20.874;2022-10-22T15:08:38;46.15;;;17.20;;
25381;SDS011;16307;42.896;20.874;2022-10-22T15:11:24;41.85;;;16.75;;
25381;SDS011;16307;42.896;20.874;2022-10-22T15:14:11;38.85;;;15.05;;
25381;SDS011;16307;42.896;20.874;2022-10-22T15:16:57;44.58;;;16.23;;
25381;SDS011;16307;42.896;20.874;2022-10-22T15:19:44;39.50;;;16.27;;
25381;SDS011;16307;42.896;20.874;2022-10-22T15:22:30;43.25;;;16.35;;
25381;SDS011;16307;42.896;20.874;2022-10-22T15:25:19;43.95;;;18.92;;
25381;SDS011;16307;42.896;20.874;2022-10-22T15:28:05;42.90;;;15.63;;
25381;SDS011;16307;42.896;20.874;2022-10-22T15:30:55;45.67;;;16.60;;
25381;SDS011;16307;42.896;20.874;2022-10-22T15:33:43;63.47;;;19.73;;
25381;SDS011;16307;42.896;20.874;2022-10-22T15:36:29;103.18;;;49.85;;
25381;SDS011;16307;42.896;20.874;2022-10-22T15:39:14;71.93;;;35.25;;
25381;SDS011;16307;42.896;20.874;2022-10-22T15:42:01;59.35;;;24.58;;
25381;SDS011;16307;42.896;20.874;2022-10-22T15:44:47;50.92;;;20.30;;
25381;SDS011;16307;42.896;20.874;2022-10-22T15:47:33;37.83;;;18.48;;
25381;SDS011;16307;42.896;20.874;2022-10-22T15:50:19;42.40;;;17.50;;
25381;SDS011;16307;42.896;20.874;2022-10-22T15:53:05;49.95;;;18.40;;
25381;SDS011;16307;42.896;20.874;2022-10-22T15:55:51;44.53;;;15.73;;
25381;SDS011;16307;42.896;20.874;2022-10-22T15:58:40;32.90;;;14.63;;
25381;SDS011;16307;42.896;20.874;2022-10-22T16:01:26;41.47;;;16.63;;
25381;SDS011;16307;42.896;20.874;2022-10-22T16:04:12;38.15;;;15.38;;
25381;SDS011;16307;42.896;20.874;2022-10-22T16:06:58;43.15;;;17.95;;
25381;SDS011;16307;42.896;20.874;2022-10-22T16:09:44;42.80;;;18.05;;
25381;SDS011;16307;42.896;20.874;2022-10-22T16:12:31;42.65;;;17.58;;
25381;SDS011;16307;42.896;20.874;2022-10-22T16:15:16;38.97;;;15.90;;
25381;SDS011;16307;42.896;20.874;2022-10-22T16:18:03;40.67;;;16.35;;
25381;SDS011;16307;42.896;20.874;2022-10-22T16:20:49;36.72;;;15.07;;
25381;SDS011;16307;42.896;20.874;2022-10-22T16:23:35;37.97;;;15.52;;
25381;SDS011;16307;42.896;20.874;2022-10-22T16:26:21;30.73;;;13.05;;
25381;SDS011;16307;42.896;20.874;2022-10-22T16:29:07;26.50;;;13.38;;
25381;SDS011;16307;42.896;20.874;2022-10-22T16:31:55;25.58;;;13.38;;
25381;SDS011;16307;42.896;20.874;2022-10-22T16:34:41;28.63;;;13.48;;
25381;SDS011;16307;42.896;20.874;2022-10-22T16:37:27;24.60;;;11.07;;
25381;SDS011;16307;42.896;20.874;2022-10-22T16:40:14;23.48;;;11.18;;
25381;SDS011;16307;42.896;20.874;2022-10-22T16:43:00;28.25;;;12.18;;
25381;SDS011;16307;42.896;20.874;2022-10-22T16:45:49;30.10;;;11.55;;
25381;SDS011;16307;42.896;20.874;2022-10-22T16:48:35;36.10;;;13.63;;
25381;SDS011;16307;42.896;20.874;2022-10-22T16:51:26;33.50;;;13.18;;
25381;SDS011;16307;42.896;20.874;2022-10-22T16:54:13;31.67;;;12.82;;
25381;SDS011;16307;42.896;20.874;2022-10-22T16:57:00;35.80;;;14.50;;
25381;SDS011;16307;42.896;20.874;2022-10-22T16:59:46;37.97;;;17.20;;
25381;SDS011;16307;42.896;20.874;2022-10-22T17:02:32;51.63;;;18.48;;
25381;SDS011;16307;42.896;20.874;2022-10-22T17:05:20;39.50;;;16.48;;
25381;SDS011;16307;42.896;20.874;2022-10-22T17:08:06;53.97;;;19.35;;
25381;SDS011;16307;42.896;20.874;2022-10-22T17:10:52;41.83;;;16.63;;
25381;SDS011;16307;42.896;20.874;2022-10-22T17:13:41;46.08;;;16.58;;
25381;SDS011;16307;42.896;20.874;2022-10-22T17:16:28;31.02;;;13.90;;
25381;SDS011;16307;42.896;20.874;2022-10-22T17:19:14;59.83;;;20.27;;
25381;SDS011;16307;42.896;20.874;2022-10-22T17:22:00;66.45;;;24.25;;
25381;SDS011;16307;42.896;20.874;2022-10-22T17:24:46;53.55;;;22.55;;
25381;SDS011;16307;42.896;20.874;2022-10-22T17:28:09;39.92;;;17.73;;
25381;SDS011;16307;42.896;20.874;2022-10-22T17:34:04;31.85;;;15.48;;
25381;SDS011;16307;42.896;20.874;2022-10-22T17:36:51;34.35;;;15.38;;
25381;SDS011;16307;42.896;20.874;2022-10-22T17:39:38;34.25;;;17.52;;
25381;SDS011;16307;42.896;20.874;2022-10-22T17:42:23;41.03;;;20.35;;
25381;SDS011;16307;42.896;20.874;2022-10-22T17:45:10;54.53;;;21.27;;
25381;SDS011;16307;42.896;20.874;2022-10-22T17:47:56;34.03;;;16.83;;
25381;SDS011;16307;42.896;20.874;2022-10-22T17:50:42;38.85;;;16.83;;